createdAt,value
2019-05-12T00:00:29.810Z,9.60
2019-05-12T00:04:31.988Z,9.66
2019-05-12T00:08:34.072Z,9.66
2019-05-12T00:12:38.427Z,9.70
2019-05-12T00:16:40.195Z,9.73
2019-05-12T00:20:42.404Z,9.73
2019-05-12T00:24:44.766Z,9.72
2019-05-12T00:28:48.227Z,9.72
2019-05-12T00:32:50.456Z,9.70
2019-05-12T00:36:53.264Z,9.70
2019-05-12T00:40:55.322Z,9.66
2019-05-12T00:44:58.532Z,9.63
2019-05-12T00:49:00.983Z,9.65
2019-05-12T00:53:03.329Z,9.63
2019-05-12T00:57:07.786Z,9.60
2019-05-12T01:01:10.151Z,9.57
2019-05-12T01:05:12.792Z,9.54
2019-05-12T01:09:17.497Z,9.55
2019-05-12T01:13:19.081Z,9.54
2019-05-12T01:17:21.220Z,9.50
2019-05-12T01:21:23.512Z,9.46
2019-05-12T01:25:25.910Z,9.42
2019-05-12T01:29:28.288Z,9.41
2019-05-12T01:33:30.635Z,9.41
2019-05-12T01:37:32.851Z,9.39
2019-05-12T01:41:34.920Z,9.37
2019-05-12T01:45:38.043Z,9.39
2019-05-12T01:49:40.392Z,9.37
2019-05-12T01:53:42.613Z,9.34
2019-05-12T01:57:44.732Z,9.29
2019-05-12T02:01:48.820Z,9.24
2019-05-12T02:05:53.770Z,9.22
2019-05-12T02:09:58.427Z,9.20
2019-05-12T02:14:00.115Z,9.16
2019-05-12T02:18:02.435Z,9.14
2019-05-12T02:22:04.737Z,9.12
2019-05-12T02:26:08.393Z,9.09
2019-05-12T02:30:11.300Z,9.07
2019-05-12T02:34:15.794Z,9.03
2019-05-12T02:38:17.790Z,8.98
2019-05-12T02:42:20.108Z,8.95
2019-05-12T02:46:25.193Z,8.94
2019-05-12T02:50:36.660Z,8.92
2019-05-12T02:54:51.917Z,8.91
2019-05-12T02:58:45.703Z,8.88
2019-05-12T03:02:50.261Z,8.90
2019-05-12T03:06:54.948Z,8.88
2019-05-12T03:10:57.455Z,8.87
2019-05-12T03:14:59.871Z,8.84
2019-05-12T03:19:04.973Z,8.84
2019-05-12T03:23:06.908Z,8.82
2019-05-12T03:27:09.625Z,8.85
2019-05-12T03:31:22.176Z,8.80
2019-05-12T03:35:17.441Z,8.81
2019-05-12T03:39:19.636Z,8.81
2019-05-12T03:43:24.190Z,8.77
2019-05-12T03:47:25.826Z,8.79
2019-05-12T03:51:28.343Z,8.80
2019-05-12T03:55:36.396Z,8.85
2019-05-12T03:59:35.269Z,8.82
2019-05-12T04:03:37.574Z,8.82
2019-05-12T04:07:39.746Z,8.85
2019-05-12T04:11:44.422Z,8.82
2019-05-12T04:15:46.192Z,8.87
2019-05-12T04:19:48.336Z,8.83
2019-05-12T04:23:54.815Z,8.82
2019-05-12T04:27:56.222Z,8.91
2019-05-12T04:31:58.509Z,8.91
2019-05-12T04:36:05.559Z,8.87
2019-05-12T04:40:08.205Z,8.83
2019-05-12T04:44:10.429Z,8.85
2019-05-12T04:48:15.556Z,8.69
2019-05-12T04:52:16.543Z,8.79
2019-05-12T04:56:20.632Z,8.83
2019-05-12T05:00:25.445Z,8.80
2019-05-12T05:04:26.437Z,8.78
2019-05-12T05:08:29.681Z,8.87
2019-05-12T05:12:34.593Z,8.86
2019-05-12T05:16:36.686Z,8.85
2019-05-12T05:20:38.962Z,8.85
2019-05-12T05:24:41.198Z,8.98
2019-05-12T05:28:45.155Z,9.04
2019-05-12T05:32:47.259Z,9.16
2019-05-12T05:36:51.123Z,9.08
2019-05-12T05:40:54.296Z,9.06
2019-05-12T05:44:56.670Z,9.09
2019-05-12T05:48:59.035Z,9.08
2019-05-12T05:53:03.538Z,9.12
2019-05-12T05:57:06.195Z,9.42
2019-05-12T06:01:08.571Z,9.37
2019-05-12T06:05:10.809Z,9.52
2019-05-12T06:09:14.159Z,9.39
2019-05-12T06:13:16.306Z,9.50
2019-05-12T06:17:18.426Z,9.62
2019-05-12T06:21:20.830Z,9.69
2019-05-12T06:25:26.406Z,9.75
2019-05-12T06:29:28.087Z,9.72
2019-05-12T06:33:31.436Z,9.70
2019-05-12T06:37:34.300Z,9.82
2019-05-12T06:41:36.422Z,10.01
2019-05-12T06:45:42.567Z,9.96
2019-05-12T06:49:43.990Z,10.02
2019-05-12T06:53:46.178Z,10.37
2019-05-12T06:57:50.252Z,10.24
2019-05-12T07:01:58.348Z,10.21
2019-05-12T07:05:56.657Z,10.77
2019-05-12T07:10:10.371Z,10.52
2019-05-12T07:14:07.809Z,10.76
2019-05-12T07:18:10.565Z,10.58
2019-05-12T07:22:21.936Z,10.65
2019-05-12T07:26:19.511Z,10.93
2019-05-12T07:30:31.750Z,10.98
2019-05-12T07:34:33.394Z,11.16
2019-05-12T07:38:37.073Z,10.95
2019-05-12T07:42:40.269Z,11.09
2019-05-12T07:46:45.625Z,11.26
2019-05-12T07:50:50.221Z,11.15
2019-05-12T07:54:52.935Z,11.19
2019-05-12T07:58:56.988Z,11.31
2019-05-12T08:02:58.083Z,11.58
2019-05-12T08:07:00.456Z,11.77
2019-05-12T08:11:04.498Z,11.67
2019-05-12T08:15:09.839Z,11.74
2019-05-12T08:19:14.836Z,11.75
2019-05-12T08:23:16.219Z,11.77
2019-05-12T08:27:18.357Z,12.03
2019-05-12T08:31:23.616Z,11.72
2019-05-12T08:35:29.434Z,11.41
2019-05-12T08:39:28.889Z,11.31
2019-05-12T08:43:31.128Z,11.60
2019-05-12T08:47:35.609Z,11.85
2019-05-12T08:51:37.241Z,11.62
2019-05-12T08:55:39.359Z,11.39
2019-05-12T09:00:09.076Z,11.26
2019-05-12T09:04:17.343Z,11.51
2019-05-12T09:08:16.289Z,11.24
2019-05-12T09:12:18.585Z,11.36
2019-05-12T09:16:21.368Z,11.33
2019-05-12T09:20:24.246Z,11.25
2019-05-12T09:24:27.433Z,10.90
2019-05-12T09:28:43.618Z,11.03
2019-05-12T09:32:34.003Z,11.03
2019-05-12T09:36:36.584Z,11.00
2019-05-12T09:40:39.032Z,11.22
2019-05-12T09:44:42.005Z,11.79
2019-05-12T09:48:51.904Z,11.94
2019-05-12T09:52:52.782Z,11.96
2019-05-12T09:56:57.799Z,12.46
2019-05-12T10:00:56.941Z,12.73
2019-05-12T10:05:00.859Z,12.85
2019-05-12T10:09:03.570Z,12.89
2019-05-12T10:13:06.008Z,13.27
2019-05-12T10:17:08.206Z,13.62
2019-05-12T10:21:15.552Z,13.55
2019-05-12T10:25:14.635Z,13.74
2019-05-12T10:29:20.584Z,14.37
2019-05-12T10:33:20.683Z,14.07
2019-05-12T10:37:25.293Z,14.87
2019-05-12T10:41:27.269Z,15.20
2019-05-12T10:45:31.033Z,14.79
2019-05-12T10:49:33.786Z,15.38
2019-05-12T10:53:36.170Z,15.56
2019-05-12T10:57:38.459Z,15.62
2019-05-12T11:01:47.237Z,16.20
2019-05-12T11:05:45.487Z,15.68
2019-05-12T11:09:47.751Z,15.19
2019-05-12T11:13:50.472Z,15.52
2019-05-12T11:18:10.282Z,15.60
2019-05-12T11:22:13.929Z,15.93
2019-05-12T11:26:16.029Z,15.76
2019-05-12T11:30:18.352Z,15.71
2019-05-12T11:34:20.797Z,15.91
2019-05-12T11:38:24.406Z,15.73
2019-05-12T11:42:26.813Z,15.25
2019-05-12T11:46:29.121Z,15.61
2019-05-12T11:50:32.605Z,16.40
2019-05-12T11:54:34.861Z,16.05
2019-05-12T11:58:41.170Z,16.05
2019-05-12T12:02:40.831Z,16.08
2019-05-12T12:06:43.852Z,16.12
2019-05-12T12:10:49.050Z,15.97
2019-05-12T12:14:50.605Z,16.24
2019-05-12T12:19:02.238Z,16.43
2019-05-12T12:23:00.233Z,16.02
2019-05-12T12:27:00.532Z,15.48
2019-05-12T12:31:05.376Z,15.01
2019-05-12T12:35:10.988Z,14.82
2019-05-12T12:39:13.176Z,15.75
2019-05-12T12:43:16.869Z,16.22
2019-05-12T12:47:18.733Z,15.73
2019-05-12T12:51:20.625Z,15.85
2019-05-12T12:55:23.398Z,16.17
2019-05-12T12:59:25.742Z,16.04
2019-05-12T13:03:29.789Z,16.17
2019-05-12T13:07:33.386Z,16.17
2019-05-12T13:11:35.862Z,16.29
2019-05-12T13:15:37.947Z,16.62
2019-05-12T13:19:48.934Z,16.52
2019-05-12T13:23:51.095Z,16.36
2019-05-12T13:27:53.668Z,16.41
2019-05-12T13:31:56.180Z,16.43
2019-05-12T13:35:58.422Z,16.01
2019-05-12T13:40:01.916Z,16.34
2019-05-12T13:44:04.420Z,16.10
2019-05-12T13:48:09.567Z,16.12
2019-05-12T13:52:10.550Z,16.22
2019-05-12T13:56:13.660Z,16.51
2019-05-12T14:00:16.447Z,16.90
2019-05-12T14:04:22.298Z,16.52
2019-05-12T14:08:23.823Z,16.22
2019-05-12T14:12:26.221Z,16.06
2019-05-12T14:16:28.343Z,16.27
2019-05-12T14:20:34.436Z,16.38
2019-05-12T14:24:41.899Z,16.09
2019-05-12T14:28:45.513Z,16.14
2019-05-12T14:32:44.308Z,16.65
2019-05-12T14:36:48.773Z,16.91
2019-05-12T14:40:54.446Z,17.07
2019-05-12T14:44:57.420Z,16.58
2019-05-12T14:48:59.495Z,18.00
2019-05-12T14:53:03.552Z,20.09
2019-05-12T14:57:05.861Z,19.02
2019-05-12T15:01:08.103Z,19.05
2019-05-12T15:05:13.684Z,18.89
2019-05-12T15:09:19.600Z,18.87
2019-05-12T15:13:18.890Z,18.97
2019-05-12T15:17:24.161Z,18.92
2019-05-12T15:21:27.393Z,19.17
2019-05-12T15:25:35.260Z,18.50
2019-05-12T15:29:33.761Z,18.60
2019-05-12T15:33:36.097Z,18.68
2019-05-12T15:37:39.069Z,17.93
2019-05-12T15:41:42.110Z,18.77
2019-05-12T15:45:49.111Z,18.83
2019-05-12T15:49:48.391Z,19.01
2019-05-12T15:53:50.646Z,17.68
2019-05-12T15:57:52.964Z,17.08
2019-05-12T16:02:08.640Z,15.65
2019-05-12T16:06:01.294Z,15.12
2019-05-12T16:10:04.321Z,14.79
2019-05-12T16:14:07.590Z,14.46
2019-05-12T16:18:10.274Z,14.29
2019-05-12T16:22:13.926Z,14.04
2019-05-12T16:26:16.326Z,13.86
2019-05-12T16:30:20.181Z,13.84
2019-05-12T16:34:22.602Z,13.57
2019-05-12T16:38:24.776Z,13.40
2019-05-12T16:42:27.061Z,13.43
2019-05-12T16:46:29.468Z,13.36
2019-05-12T16:50:34.288Z,13.19
2019-05-12T16:54:35.574Z,13.15
2019-05-12T16:58:37.797Z,13.25
2019-05-12T17:02:42.203Z,12.90
2019-05-12T17:06:47.088Z,12.72
2019-05-12T17:10:58.334Z,12.62
2019-05-12T17:14:53.324Z,12.40
2019-05-12T17:19:00.092Z,12.20
2019-05-12T17:23:00.556Z,12.06
2019-05-12T17:27:03.651Z,11.89
2019-05-12T17:31:06.952Z,11.69
2019-05-12T17:35:10.260Z,11.57
2019-05-12T17:39:13.823Z,11.43
2019-05-12T17:43:16.240Z,11.33
2019-05-12T17:47:21.416Z,11.15
2019-05-12T17:51:26.810Z,11.00
2019-05-12T17:55:26.802Z,10.90
2019-05-12T17:59:29.562Z,10.80
2019-05-12T18:03:34.150Z,10.70
2019-05-12T18:07:35.848Z,10.56
2019-05-12T18:11:38.030Z,10.44
2019-05-12T18:15:40.304Z,10.24
2019-05-12T18:19:44.438Z,10.15
2019-05-12T18:23:47.012Z,10.02
2019-05-12T18:27:50.951Z,9.89
2019-05-12T18:31:55.521Z,9.71
2019-05-12T18:35:57.289Z,9.60
2019-05-12T18:39:59.613Z,9.47
2019-05-12T18:44:04.283Z,9.28
2019-05-12T18:48:10.097Z,9.07
2019-05-12T18:52:10.155Z,8.93
2019-05-12T18:56:19.753Z,8.81
2019-05-12T19:00:20.463Z,8.72
2019-05-12T19:04:22.629Z,8.58
2019-05-12T19:08:24.809Z,8.47
2019-05-12T19:12:32.238Z,8.29
2019-05-12T19:16:30.958Z,8.11
2019-05-12T19:20:36.100Z,8.10
2019-05-12T19:24:38.698Z,7.91
2019-05-12T19:28:44.277Z,7.82
2019-05-12T19:32:45.280Z,7.76
2019-05-12T19:36:49.513Z,7.53
2019-05-12T19:40:56.233Z,7.36
2019-05-12T19:44:59.324Z,7.17
2019-05-12T19:48:59.255Z,7.14
2019-05-12T19:53:03.997Z,7.40
2019-05-12T19:57:05.662Z,7.37
2019-05-12T20:01:08.007Z,7.29
2019-05-12T20:05:10.215Z,7.10
2019-05-12T20:09:14.675Z,7.14
2019-05-12T20:13:16.319Z,7.00
2019-05-12T20:17:18.449Z,6.86
2019-05-12T20:21:26.012Z,6.79
2019-05-12T20:25:24.637Z,6.79
2019-05-12T20:29:33.168Z,6.61
2019-05-12T20:33:30.459Z,6.49
2019-05-12T20:37:33.678Z,6.50
2019-05-12T20:41:37.123Z,6.55
2019-05-12T20:45:40.626Z,6.54
2019-05-12T20:49:51.129Z,6.53
2019-05-12T20:53:47.445Z,6.45
2019-05-12T20:57:53.626Z,6.35
2019-05-12T21:01:54.143Z,6.32
2019-05-12T21:06:00.211Z,6.20
2019-05-12T21:10:00.378Z,6.05
2019-05-12T21:14:09.811Z,5.98
2019-05-12T21:18:07.484Z,5.88
2019-05-12T21:22:09.767Z,5.87
2019-05-12T21:26:12.053Z,5.79
2019-05-12T21:30:15.459Z,5.69
2019-05-12T21:34:21.186Z,5.77
2019-05-12T21:38:27.487Z,5.71
2019-05-12T21:42:25.682Z,5.63
2019-05-12T21:46:27.868Z,5.67
2019-05-12T21:50:38.058Z,5.49
2019-05-12T21:54:37.751Z,5.46
2019-05-12T21:58:45.522Z,5.40
2019-05-12T22:02:42.917Z,5.36
2019-05-12T22:06:45.465Z,5.23
2019-05-12T22:10:48.057Z,5.12
2019-05-12T22:14:50.536Z,5.02
2019-05-12T22:18:58.629Z,4.89
2019-05-12T22:23:00.531Z,4.79
2019-05-12T22:27:04.938Z,4.68
2019-05-12T22:31:06.108Z,4.56
2019-05-12T22:35:13.184Z,4.43
2019-05-12T22:39:14.333Z,4.25
2019-05-12T22:43:17.025Z,4.02
2019-05-12T22:47:19.474Z,3.95
2019-05-12T22:51:24.486Z,4.04
2019-05-12T22:55:32.394Z,4.05
2019-05-12T22:59:34.321Z,4.02
2019-05-12T23:03:34.961Z,3.89
2019-05-12T23:07:37.651Z,3.63
2019-05-12T23:11:40.273Z,3.30
2019-05-12T23:15:45.281Z,3.08
2019-05-12T23:19:51.528Z,2.97
2019-05-12T23:23:57.231Z,2.90
2019-05-12T23:28:00.237Z,2.84
2019-05-12T23:32:00.647Z,2.75
2019-05-12T23:36:04.117Z,2.69
2019-05-12T23:40:11.511Z,2.72
2019-05-12T23:44:13.414Z,2.83
2019-05-12T23:48:15.791Z,2.93
2019-05-12T23:52:18.109Z,3.01
2019-05-12T23:56:20.902Z,3.14
